createdAt,value
2022-11-20T00:00:21.822Z,98737.72
2022-11-20T00:02:49.182Z,98737.53
2022-11-20T00:05:16.322Z,98728.59
2022-11-20T00:07:43.423Z,98728.09
2022-11-20T00:10:13.338Z,98725.78
2022-11-20T00:12:40.460Z,98732.88
2022-11-20T00:15:07.812Z,98741.97
2022-11-20T00:17:35.157Z,98739.09
2022-11-20T00:20:02.258Z,98736.00
2022-11-20T00:22:29.363Z,98738.25
2022-11-20T00:24:58.292Z,98744.03
2022-11-20T00:27:25.396Z,98732.78
2022-11-20T00:29:52.506Z,98738.97
2022-11-20T00:32:20.081Z,98734.56
2022-11-20T00:34:47.173Z,98747.38
2022-11-20T00:37:14.352Z,98747.12
2022-11-20T00:39:41.731Z,98764.44
2022-11-20T00:42:08.832Z,98752.13
2022-11-20T00:44:35.918Z,98739.19
2022-11-20T00:47:03.287Z,98735.19
2022-11-20T00:49:30.383Z,98737.03
2022-11-20T00:51:57.477Z,98738.03
2022-11-20T00:54:24.861Z,98737.88
2022-11-20T00:56:53.894Z,98734.78
2022-11-20T00:59:21.330Z,98728.91
2022-11-20T01:01:48.949Z,98725.78
2022-11-20T01:04:16.049Z,98722.41
2022-11-20T01:06:43.157Z,98732.66
2022-11-20T01:09:11.933Z,98725.84
2022-11-20T01:11:40.545Z,98735.72
2022-11-20T01:14:10.705Z,98737.59
2022-11-20T01:16:39.078Z,98751.78
2022-11-20T01:19:08.047Z,98749.00
2022-11-20T01:21:38.830Z,98747.91
2022-11-20T01:24:07.972Z,98747.44
2022-11-20T01:26:35.731Z,98753.53
2022-11-20T01:29:03.334Z,98751.13
2022-11-20T01:31:31.649Z,98748.56
2022-11-20T01:33:59.804Z,98735.91
2022-11-20T01:36:28.040Z,98744.63
2022-11-20T01:38:56.045Z,98742.06
2022-11-20T01:41:42.452Z,98745.38
2022-11-20T01:44:10.397Z,98747.25
2022-11-20T01:46:38.248Z,98733.84
2022-11-20T01:49:06.717Z,98730.28
2022-11-20T01:51:40.997Z,98722.03
2022-11-20T01:54:09.389Z,98723.66
2022-11-20T01:56:37.764Z,98728.28
2022-11-20T01:59:05.226Z,98718.66
2022-11-20T02:01:32.417Z,98720.47
2022-11-20T02:03:59.884Z,98713.72
2022-11-20T02:06:27.615Z,98727.56
2022-11-20T02:08:54.725Z,98724.75
2022-11-20T02:11:22.295Z,98729.28
2022-11-20T02:13:49.470Z,98738.03
2022-11-20T02:16:17.995Z,98728.94
2022-11-20T02:18:45.551Z,98714.44
2022-11-20T02:21:28.005Z,98721.47
2022-11-20T02:24:03.098Z,98730.19
2022-11-20T02:26:31.150Z,98732.59
2022-11-20T02:28:59.164Z,98728.37
2022-11-20T02:31:26.289Z,98720.59
2022-11-20T02:33:56.930Z,98713.72
2022-11-20T02:36:24.390Z,98708.50
2022-11-20T02:38:51.628Z,98710.25
2022-11-20T02:41:18.749Z,98714.41
2022-11-20T02:43:46.109Z,98711.97
2022-11-20T02:46:13.279Z,98698.19
2022-11-20T02:48:45.998Z,98701.59
2022-11-20T02:51:17.475Z,98699.88
2022-11-20T02:53:44.579Z,98699.88
2022-11-20T02:56:11.693Z,98715.41
2022-11-20T02:58:39.051Z,98706.69
2022-11-20T03:01:06.256Z,98702.25
2022-11-20T03:03:33.583Z,98691.88
2022-11-20T03:06:00.975Z,98686.47
2022-11-20T03:08:28.075Z,98696.25
2022-11-20T03:10:55.204Z,98695.75
2022-11-20T03:13:22.572Z,98690.59
2022-11-20T03:15:49.718Z,98699.28
2022-11-20T03:18:16.826Z,98697.56
2022-11-20T03:20:44.178Z,98694.97
2022-11-20T03:23:11.285Z,98707.84
2022-11-20T03:25:38.392Z,98711.53
2022-11-20T03:28:05.867Z,98731.81
2022-11-20T03:30:32.969Z,98731.59
2022-11-20T03:33:00.122Z,98726.31
2022-11-20T03:35:27.470Z,98710.31
2022-11-20T03:37:54.571Z,98712.91
2022-11-20T03:40:21.698Z,98704.09
2022-11-20T03:42:49.108Z,98704.31
2022-11-20T03:45:17.460Z,98697.53
2022-11-20T03:47:44.998Z,98693.81
2022-11-20T03:50:15.842Z,98695.81
2022-11-20T03:52:43.061Z,98707.16
2022-11-20T03:55:10.435Z,98710.78
2022-11-20T03:57:37.815Z,98710.81
2022-11-20T04:00:05.582Z,98707.34
2022-11-20T04:02:33.012Z,98693.59
2022-11-20T04:05:00.177Z,98689.47
2022-11-20T04:07:27.382Z,98682.37
2022-11-20T04:09:54.838Z,98685.00
2022-11-20T04:12:21.943Z,98672.91
2022-11-20T04:14:49.101Z,98672.13
2022-11-20T04:17:16.764Z,98664.34
2022-11-20T04:19:43.882Z,98654.69
2022-11-20T04:22:12.581Z,98651.97
2022-11-20T04:24:39.937Z,98654.59
2022-11-20T04:27:07.117Z,98658.87
2022-11-20T04:29:34.365Z,98669.44
2022-11-20T04:32:01.746Z,98664.09
2022-11-20T04:34:28.836Z,98660.75
2022-11-20T04:36:55.923Z,98660.75
2022-11-20T04:39:23.575Z,98666.91
2022-11-20T04:42:10.856Z,98652.22
2022-11-20T04:44:38.234Z,98646.91
2022-11-20T04:47:05.346Z,98657.06
2022-11-20T04:49:32.841Z,98657.16
2022-11-20T04:52:00.240Z,98650.13
2022-11-20T04:54:27.350Z,98637.50
2022-11-20T04:56:54.465Z,98635.59
2022-11-20T04:59:22.038Z,98628.69
2022-11-20T05:01:49.666Z,98634.91
2022-11-20T05:04:16.772Z,98648.66
2022-11-20T05:06:44.143Z,98643.38
2022-11-20T05:09:11.264Z,98649.38
2022-11-20T05:11:38.363Z,98651.16
2022-11-20T05:14:05.748Z,98649.53
2022-11-20T05:16:34.860Z,98646.78
2022-11-20T05:19:01.955Z,98646.56
2022-11-20T05:21:31.011Z,98652.50
2022-11-20T05:23:58.126Z,98658.56
2022-11-20T05:26:25.229Z,98656.34
2022-11-20T05:28:52.666Z,98637.44
2022-11-20T05:31:26.329Z,98631.53
2022-11-20T05:33:55.002Z,98631.53
2022-11-20T05:36:22.109Z,98626.28
2022-11-20T05:38:51.076Z,98615.75
2022-11-20T05:41:19.950Z,98600.31
2022-11-20T05:43:47.558Z,98609.06
2022-11-20T05:46:15.259Z,98627.88
2022-11-20T05:48:43.129Z,98628.53
2022-11-20T05:51:10.689Z,98645.06
2022-11-20T05:53:37.790Z,98644.22
2022-11-20T05:56:06.292Z,98649.97
2022-11-20T05:58:33.469Z,98653.88
2022-11-20T06:01:04.452Z,98643.44
2022-11-20T06:03:31.804Z,98632.19
2022-11-20T06:05:59.812Z,98656.44
2022-11-20T06:08:26.928Z,98661.34
2022-11-20T06:10:54.824Z,98640.59
2022-11-20T06:13:21.923Z,98651.09
2022-11-20T06:15:52.529Z,98658.84
2022-11-20T06:18:20.009Z,98649.88
2022-11-20T06:20:47.255Z,98657.03
2022-11-20T06:23:14.403Z,98658.75
2022-11-20T06:25:42.394Z,98653.53
2022-11-20T06:28:09.905Z,98658.06
2022-11-20T06:30:37.010Z,98662.06
2022-11-20T06:33:04.490Z,98668.66
2022-11-20T06:35:31.605Z,98682.41
2022-11-20T06:37:58.795Z,98689.37
2022-11-20T06:40:26.172Z,98689.63
2022-11-20T06:42:54.703Z,98695.66
2022-11-20T06:45:22.150Z,98699.72
2022-11-20T06:47:49.525Z,98702.53
2022-11-20T06:50:16.654Z,98704.44
2022-11-20T06:52:43.952Z,98693.62
2022-11-20T06:55:11.339Z,98691.75
2022-11-20T06:57:38.459Z,98684.19
2022-11-20T07:00:05.781Z,98677.44
2022-11-20T07:02:33.139Z,98691.72
2022-11-20T07:05:00.239Z,98686.97
2022-11-20T07:07:27.384Z,98688.19
2022-11-20T07:09:54.785Z,98686.84
2022-11-20T07:12:21.876Z,98689.25
2022-11-20T07:14:48.967Z,98705.25
2022-11-20T07:17:16.370Z,98710.81
2022-11-20T07:19:43.891Z,98704.69
2022-11-20T07:22:11.012Z,98712.84
2022-11-20T07:24:41.899Z,98712.44
2022-11-20T07:27:12.866Z,98718.66
2022-11-20T07:29:40.613Z,98712.25
2022-11-20T07:32:07.728Z,98717.25
2022-11-20T07:34:34.954Z,98718.25
2022-11-20T07:37:07.478Z,98717.97
2022-11-20T07:39:37.252Z,98717.25
2022-11-20T07:42:04.642Z,98719.38
2022-11-20T07:44:31.770Z,98713.84
2022-11-20T07:46:58.891Z,98713.25
2022-11-20T07:49:26.256Z,98703.94
2022-11-20T07:52:00.426Z,98714.63
2022-11-20T07:54:30.600Z,98714.47
2022-11-20T07:56:57.726Z,98711.00
2022-11-20T07:59:24.842Z,98710.09
2022-11-20T08:01:52.235Z,98707.91
2022-11-20T08:04:19.788Z,98703.63
2022-11-20T08:06:46.907Z,98696.31
2022-11-20T08:09:14.004Z,98692.22
2022-11-20T08:12:00.126Z,98676.72
2022-11-20T08:14:28.659Z,98695.03
2022-11-20T08:16:56.024Z,98690.19
2022-11-20T08:19:23.350Z,98692.69
2022-11-20T08:21:50.651Z,98690.28
2022-11-20T08:24:18.042Z,98687.75
2022-11-20T08:26:45.153Z,98689.19
2022-11-20T08:29:12.249Z,98691.78
2022-11-20T08:31:39.610Z,98691.97
2022-11-20T08:34:09.530Z,98699.59
2022-11-20T08:36:37.278Z,98702.19
2022-11-20T08:39:04.669Z,98703.00
2022-11-20T08:41:34.145Z,98704.78
2022-11-20T08:44:02.765Z,98691.25
2022-11-20T08:46:34.865Z,98709.28
2022-11-20T08:49:01.979Z,98711.41
2022-11-20T08:51:29.327Z,98726.41
2022-11-20T08:53:56.439Z,98727.25
2022-11-20T08:56:23.568Z,98721.37
2022-11-20T09:01:38.797Z,98738.41
2022-11-20T09:04:06.228Z,98730.97
2022-11-20T09:06:33.342Z,98738.78
2022-11-20T09:09:06.080Z,98740.53
2022-11-20T09:11:35.338Z,98741.47
2022-11-20T09:14:03.829Z,98737.16
2022-11-20T09:16:30.996Z,98733.75
2022-11-20T09:19:28.278Z,98745.81
2022-11-20T09:21:46.424Z,98739.78
2022-11-20T09:24:13.779Z,98737.16
2022-11-20T09:26:40.895Z,98738.91
2022-11-20T09:29:08.039Z,98731.16
2022-11-20T09:31:35.419Z,98729.41
2022-11-20T09:34:02.537Z,98729.41
2022-11-20T09:36:29.731Z,98723.38
2022-11-20T09:38:57.838Z,98728.53
2022-11-20T09:41:24.858Z,98729.41
2022-11-20T09:43:56.054Z,98726.78
2022-11-20T09:46:27.681Z,98719.87
2022-11-20T09:49:02.023Z,98725.00
2022-11-20T09:51:41.714Z,98732.19
2022-11-20T09:54:11.729Z,98725.03
2022-11-20T09:56:40.276Z,98729.88
2022-11-20T09:59:07.664Z,98727.31
2022-11-20T10:01:35.387Z,98722.22
2022-11-20T10:04:03.884Z,98727.84
2022-11-20T10:06:42.808Z,98722.66
2022-11-20T10:09:13.122Z,98717.69
2022-11-20T10:11:49.105Z,98716.09
2022-11-20T10:14:16.481Z,98703.19
2022-11-20T10:17:02.096Z,98695.81
2022-11-20T10:19:44.730Z,98698.22
2022-11-20T10:22:20.847Z,98697.03
2022-11-20T10:24:48.149Z,98692.09
2022-11-20T10:27:15.803Z,98689.37
2022-11-20T10:29:43.503Z,98684.19
2022-11-20T10:32:12.401Z,98685.66
2022-11-20T10:34:45.488Z,98683.06
2022-11-20T10:37:14.149Z,98676.66
2022-11-20T10:39:47.428Z,98675.16
2022-11-20T10:42:16.766Z,98669.16
2022-11-20T10:45:05.998Z,98673.78
2022-11-20T10:47:34.000Z,98678.59
2022-11-20T10:50:06.100Z,98666.59
2022-11-20T10:52:52.336Z,98670.97
2022-11-20T10:55:34.375Z,98673.31
2022-11-20T10:58:08.032Z,98677.28
2022-11-20T11:00:35.216Z,98689.87
2022-11-20T11:03:06.083Z,98702.81
2022-11-20T11:05:35.702Z,98701.50
2022-11-20T11:08:03.154Z,98697.59
2022-11-20T11:10:35.717Z,98688.56
2022-11-20T11:13:03.058Z,98688.97
2022-11-20T11:15:31.495Z,98698.19
2022-11-20T11:17:58.619Z,98700.56
2022-11-20T11:20:26.500Z,98707.31
2022-11-20T11:22:57.784Z,98717.53
2022-11-20T11:25:34.941Z,98711.66
2022-11-20T11:28:03.810Z,98706.44
2022-11-20T11:30:31.986Z,98704.66
2022-11-20T11:33:10.655Z,98700.72
2022-11-20T11:35:59.758Z,98701.56
2022-11-20T11:38:36.905Z,98697.81
2022-11-20T11:41:07.057Z,98699.53
2022-11-20T11:43:54.131Z,98693.88
2022-11-20T11:46:21.443Z,98687.94
2022-11-20T11:49:07.386Z,98685.81
2022-11-20T11:52:07.599Z,98680.72
2022-11-20T11:54:40.530Z,98665.06
2022-11-20T11:57:31.243Z,98666.50
2022-11-20T12:00:07.170Z,98672.78
2022-11-20T12:02:43.715Z,98672.97
2022-11-20T12:05:21.036Z,98674.28
2022-11-20T12:07:49.787Z,98675.72
2022-11-20T12:10:18.934Z,98676.03
2022-11-20T12:12:46.538Z,98680.63
2022-11-20T12:15:14.484Z,98667.75
2022-11-20T12:17:41.591Z,98671.19
2022-11-20T12:20:13.848Z,98678.22
2022-11-20T12:22:48.197Z,98672.81
2022-11-20T12:25:16.588Z,98668.16
2022-11-20T12:28:04.996Z,98665.81
2022-11-20T12:30:33.244Z,98653.69
2022-11-20T12:33:05.264Z,98656.59
2022-11-20T12:35:51.563Z,98656.41
2022-11-20T12:38:28.614Z,98661.66
2022-11-20T12:41:15.013Z,98661.97
2022-11-20T12:44:21.238Z,98658.50
2022-11-20T12:47:12.194Z,98662.44
2022-11-20T12:49:44.605Z,98658.53
2022-11-20T12:52:17.956Z,98660.97
2022-11-20T12:54:55.442Z,98674.84
2022-11-20T12:57:22.512Z,98676.59
2022-11-20T13:00:11.222Z,98675.72
2022-11-20T13:02:38.360Z,98674.81
2022-11-20T13:05:08.703Z,98678.31
2022-11-20T13:07:36.867Z,98669.66
2022-11-20T13:10:07.577Z,98667.94
2022-11-20T13:12:38.640Z,98667.03
2022-11-20T13:15:13.017Z,98669.66
2022-11-20T13:17:53.708Z,98674.84
2022-11-20T13:20:20.968Z,98672.25
2022-11-20T13:22:59.206Z,98673.16
2022-11-20T13:25:30.378Z,98665.31
2022-11-20T13:27:58.795Z,98672.25
2022-11-20T13:30:29.715Z,98658.41
2022-11-20T13:33:03.674Z,98648.84
2022-11-20T13:35:35.256Z,98642.78
2022-11-20T13:38:04.469Z,98635.00
2022-11-20T13:40:32.189Z,98631.56
2022-11-20T13:43:05.641Z,98626.41
2022-11-20T13:45:33.420Z,98631.56
2022-11-20T13:48:18.234Z,98622.94
2022-11-20T13:50:56.050Z,98626.38
2022-11-20T13:53:27.796Z,98635.91
2022-11-20T13:55:55.796Z,98630.66
2022-11-20T13:58:42.362Z,98620.31
2022-11-20T14:01:10.268Z,98620.28
2022-11-20T14:04:05.071Z,98622.81
2022-11-20T14:06:33.708Z,98611.63
2022-11-20T14:09:01.373Z,98619.44
2022-11-20T14:11:29.392Z,98624.62
2022-11-20T14:13:56.946Z,98616.75
2022-11-20T14:16:26.008Z,98622.88
2022-11-20T14:18:53.713Z,98630.69
2022-11-20T14:21:30.916Z,98625.53
2022-11-20T14:24:05.752Z,98637.63
2022-11-20T14:26:33.609Z,98636.75
2022-11-20T14:29:01.617Z,98634.06
2022-11-20T14:31:29.248Z,98637.59
2022-11-20T14:33:56.967Z,98638.38
2022-11-20T14:36:25.246Z,98635.91
2022-11-20T14:38:52.661Z,98640.22
2022-11-20T14:41:22.504Z,98650.59
2022-11-20T14:43:55.362Z,98646.31
2022-11-20T14:46:22.761Z,98654.81
2022-11-20T14:48:55.509Z,98649.72
2022-11-20T14:51:33.238Z,98661.84
2022-11-20T14:54:13.955Z,98658.38
2022-11-20T14:56:41.667Z,98670.47
2022-11-20T14:59:10.200Z,98660.84
2022-11-20T15:01:38.865Z,98665.34
2022-11-20T15:04:15.646Z,98662.72
2022-11-20T15:06:55.024Z,98670.47
2022-11-20T15:09:22.838Z,98663.47
2022-11-20T15:11:57.385Z,98666.87
2022-11-20T15:14:26.205Z,98658.94
2022-11-20T15:16:56.585Z,98673.03
2022-11-20T15:19:24.777Z,98658.03
2022-11-20T15:21:52.041Z,98660.75
2022-11-20T15:24:19.796Z,98657.97
2022-11-20T15:26:47.025Z,98656.16
2022-11-20T15:29:15.013Z,98654.44
2022-11-20T15:31:42.807Z,98659.72
2022-11-20T15:34:13.582Z,98656.94
2022-11-20T15:36:41.401Z,98650.78
2022-11-20T15:39:09.784Z,98655.94
2022-11-20T15:41:37.492Z,98649.09
2022-11-20T15:44:05.369Z,98649.00
2022-11-20T15:46:39.598Z,98653.25
2022-11-20T15:49:07.417Z,98657.00
2022-11-20T15:51:35.993Z,98654.44
2022-11-20T15:54:10.911Z,98655.31
2022-11-20T15:56:42.068Z,98656.88
2022-11-20T15:59:09.728Z,98651.94
2022-11-20T16:01:37.574Z,98652.78
2022-11-20T16:04:06.491Z,98651.91
2022-11-20T16:06:34.166Z,98650.09
2022-11-20T16:09:01.851Z,98653.66
2022-11-20T16:11:29.619Z,98655.31
2022-11-20T16:14:16.009Z,98649.31
2022-11-20T16:16:44.803Z,98652.78
2022-11-20T16:19:16.122Z,98662.19
2022-11-20T16:21:43.919Z,98664.88
2022-11-20T16:24:13.376Z,98661.34
2022-11-20T16:26:41.594Z,98664.94
2022-11-20T16:29:09.750Z,98663.09
2022-11-20T16:31:37.529Z,98670.25
2022-11-20T16:34:12.019Z,98670.13
2022-11-20T16:36:40.973Z,98663.41
2022-11-20T16:39:08.796Z,98667.75
2022-11-20T16:41:36.755Z,98660.75
2022-11-20T16:44:08.131Z,98652.91
2022-11-20T16:46:36.008Z,98656.34
2022-11-20T16:49:04.936Z,98653.81
2022-11-20T16:51:36.840Z,98660.97
2022-11-20T16:54:05.117Z,98647.00
2022-11-20T16:56:33.011Z,98645.13
2022-11-20T16:59:04.415Z,98644.16
2022-11-20T17:01:32.702Z,98645.13
2022-11-20T17:04:01.273Z,98639.94
2022-11-20T17:06:33.136Z,98633.81
2022-11-20T17:09:00.802Z,98626.97
2022-11-20T17:11:28.710Z,98638.28
2022-11-20T17:13:58.422Z,98624.44
2022-11-20T17:16:26.589Z,98623.56
2022-11-20T17:18:58.319Z,98620.09
2022-11-20T17:21:30.632Z,98613.19
2022-11-20T17:24:01.020Z,98599.25
2022-11-20T17:26:29.217Z,98601.09
2022-11-20T17:29:04.397Z,98603.00
2022-11-20T17:31:32.842Z,98597.78
2022-11-20T17:34:03.762Z,98596.84
2022-11-20T17:36:31.806Z,98597.78
2022-11-20T17:38:59.964Z,98603.00
2022-11-20T17:41:28.743Z,98598.66
2022-11-20T17:43:57.082Z,98592.59
2022-11-20T17:46:26.592Z,98588.28
2022-11-20T17:48:55.214Z,98587.41
2022-11-20T17:51:27.196Z,98571.78
2022-11-20T17:53:56.281Z,98580.50
2022-11-20T17:56:43.277Z,98583.09
2022-11-20T17:59:15.290Z,98590.91
2022-11-20T18:01:45.807Z,98587.44
2022-11-20T18:04:13.770Z,98595.22
2022-11-20T18:06:41.480Z,98597.81
2022-11-20T18:09:11.369Z,98596.09
2022-11-20T18:11:40.020Z,98603.00
2022-11-20T18:14:26.883Z,98609.06
2022-11-20T18:17:04.079Z,98613.41
2022-11-20T18:19:38.776Z,98609.06
2022-11-20T18:22:08.909Z,98616.84
2022-11-20T18:24:37.084Z,98621.03
2022-11-20T18:27:06.135Z,98633.28
2022-11-20T18:29:35.010Z,98628.94
2022-11-20T18:32:02.960Z,98638.47
2022-11-20T18:34:30.567Z,98640.19
2022-11-20T18:36:58.657Z,98648.88
2022-11-20T18:39:27.515Z,98649.75
2022-11-20T18:42:13.601Z,98647.16
2022-11-20T18:44:56.838Z,98651.47
2022-11-20T18:47:25.815Z,98654.94
2022-11-20T18:49:54.443Z,98669.66
2022-11-20T18:52:26.980Z,98659.22
2022-11-20T18:54:57.207Z,98660.09
2022-11-20T18:57:25.238Z,98654.91
2022-11-20T18:59:54.060Z,98651.47
2022-11-20T19:02:22.304Z,98654.03
2022-11-20T19:04:50.162Z,98648.84
2022-11-20T19:07:18.148Z,98645.41
2022-11-20T19:09:48.648Z,98659.28
2022-11-20T19:12:16.945Z,98661.84
2022-11-20T19:14:48.182Z,98661.91
2022-11-20T19:17:17.541Z,98676.59
2022-11-20T19:19:45.234Z,98674.84
2022-11-20T19:22:12.645Z,98678.31
2022-11-20T19:24:40.724Z,98680.06
2022-11-20T19:27:08.460Z,98682.63
2022-11-20T19:29:37.624Z,98680.06
2022-11-20T19:32:05.608Z,98674.00
2022-11-20T19:34:33.786Z,98673.94
2022-11-20T19:37:01.444Z,98661.00
2022-11-20T19:39:30.051Z,98657.41
2022-11-20T19:41:58.091Z,98653.03
2022-11-20T19:44:25.814Z,98654.81
2022-11-20T19:46:53.560Z,98651.44
2022-11-20T19:49:23.484Z,98648.88
2022-11-20T19:51:54.109Z,98646.28
2022-11-20T19:54:21.337Z,98647.13
2022-11-20T19:56:52.467Z,98641.97
2022-11-20T19:59:20.503Z,98647.13
2022-11-20T20:04:33.313Z,98640.22
2022-11-20T20:07:04.182Z,98654.94
2022-11-20T20:09:31.882Z,98652.34
2022-11-20T20:11:59.965Z,98628.09
2022-11-20T20:14:27.620Z,98619.44
2022-11-20T20:16:56.123Z,98620.31
2022-11-20T20:19:23.914Z,98621.16
2022-11-20T20:21:51.795Z,98612.53
2022-11-20T20:24:19.592Z,98613.41
2022-11-20T20:26:49.019Z,98612.47
2022-11-20T20:29:16.744Z,98617.66
2022-11-20T20:31:44.543Z,98617.69
2022-11-20T20:34:12.575Z,98613.37
2022-11-20T20:36:40.269Z,98597.81
2022-11-20T20:39:07.873Z,98599.53
2022-11-20T20:41:37.060Z,98596.94
2022-11-20T20:44:23.701Z,98602.97
2022-11-20T20:46:52.617Z,98607.31
2022-11-20T20:49:21.328Z,98602.97
2022-11-20T20:51:49.469Z,98609.94
2022-11-20T20:54:18.477Z,98598.59
2022-11-20T20:56:46.448Z,98605.59
2022-11-20T20:59:14.237Z,98598.66
2022-11-20T21:01:42.480Z,98606.47
2022-11-20T21:04:11.524Z,98607.31
2022-11-20T21:06:39.125Z,98609.88
2022-11-20T21:09:06.599Z,98607.34
2022-11-20T21:11:34.156Z,98607.28
2022-11-20T21:14:01.528Z,98603.81
2022-11-20T21:16:40.990Z,98609.91
2022-11-20T21:19:08.871Z,98608.19
2022-11-20T21:21:55.525Z,98603.84
2022-11-20T21:24:23.070Z,98604.72
2022-11-20T21:26:52.429Z,98605.59
2022-11-20T21:29:20.265Z,98608.97
2022-11-20T21:31:47.626Z,98609.88
2022-11-20T21:34:15.750Z,98609.06
2022-11-20T21:36:42.943Z,98607.31
2022-11-20T21:39:10.883Z,98605.59
2022-11-20T21:41:38.271Z,98619.44
2022-11-20T21:46:53.191Z,98614.19
2022-11-20T21:49:20.384Z,98613.37
2022-11-20T21:51:47.652Z,98612.47
2022-11-20T21:54:15.076Z,98619.41
2022-11-20T21:56:42.215Z,98613.37
2022-11-20T21:59:13.246Z,98613.37
2022-11-20T22:01:41.563Z,98596.94
2022-11-20T22:04:12.561Z,98609.88
2022-11-20T22:06:39.672Z,98609.03
2022-11-20T22:09:06.803Z,98596.94
2022-11-20T22:11:34.158Z,98595.22
2022-11-20T22:14:19.894Z,98596.09
2022-11-20T22:16:47.398Z,98590.91
2022-11-20T22:19:18.999Z,98586.56
2022-11-20T22:21:47.312Z,98583.09
2022-11-20T22:24:15.262Z,98582.25
2022-11-20T22:26:42.494Z,98579.62
2022-11-20T22:29:14.376Z,98572.69
2022-11-20T22:31:41.983Z,98566.66
2022-11-20T22:34:10.810Z,98562.34
2022-11-20T22:36:38.055Z,98556.25
2022-11-20T22:39:05.317Z,98557.09
2022-11-20T22:41:33.757Z,98551.06
2022-11-20T22:44:01.918Z,98551.94
2022-11-20T22:46:29.677Z,98538.06
2022-11-20T22:48:57.972Z,98541.53
2022-11-20T22:51:25.809Z,98544.13
2022-11-20T22:53:53.015Z,98552.81
2022-11-20T22:56:20.556Z,98547.63
2022-11-20T22:58:48.468Z,98545.03
2022-11-20T23:01:16.440Z,98540.72
2022-11-20T23:03:48.348Z,98549.34
2022-11-20T23:06:16.013Z,98557.16
2022-11-20T23:08:43.503Z,98539.88
2022-11-20T23:11:19.893Z,98532.94
2022-11-20T23:13:47.471Z,98528.63
2022-11-20T23:16:15.432Z,98522.53
2022-11-20T23:18:42.711Z,98520.84
2022-11-20T23:21:11.138Z,98512.97
2022-11-20T23:23:38.262Z,98520.81
2022-11-20T23:26:06.192Z,98523.41
2022-11-20T23:28:33.654Z,98530.34
2022-11-20T23:31:01.072Z,98530.34
2022-11-20T23:33:28.346Z,98533.81
2022-11-20T23:35:55.732Z,98532.94
2022-11-20T23:38:22.929Z,98526.03
2022-11-20T23:40:50.733Z,98524.31
2022-11-20T23:43:19.146Z,98525.13
2022-11-20T23:45:47.038Z,98526.03
2022-11-20T23:48:14.294Z,98528.63
2022-11-20T23:50:41.950Z,98526.00
2022-11-20T23:53:09.204Z,98518.25
2022-11-20T23:55:36.300Z,98525.16
2022-11-20T23:58:03.972Z,98515.63
